sensor_id;sensor_type;location;lat;lon;timestamp;temperature;humidity
7842;DHT22;3966;51.052;13.820;2023-05-13T00:01:11;11.30;99.90
7842;DHT22;3966;51.052;13.820;2023-05-13T00:03:37;11.30;99.90
7842;DHT22;3966;51.052;13.820;2023-05-13T00:06:03;11.30;99.90
7842;DHT22;3966;51.052;13.820;2023-05-13T00:08:28;11.30;99.90
7842;DHT22;3966;51.052;13.820;2023-05-13T00:10:54;11.20;99.90
7842;DHT22;3966;51.052;13.820;2023-05-13T00:13:20;11.30;99.90
7842;DHT22;3966;51.052;13.820;2023-05-13T00:15:45;11.30;99.90
7842;DHT22;3966;51.052;13.820;2023-05-13T00:18:11;11.20;99.90
7842;DHT22;3966;51.052;13.820;2023-05-13T00:20:37;11.20;99.90
7842;DHT22;3966;51.052;13.820;2023-05-13T00:23:02;11.20;99.90
7842;DHT22;3966;51.052;13.820;2023-05-13T00:25:28;11.10;99.90
7842;DHT22;3966;51.052;13.820;2023-05-13T00:27:54;11.00;99.90
7842;DHT22;3966;51.052;13.820;2023-05-13T00:30:20;11.00;99.90
7842;DHT22;3966;51.052;13.820;2023-05-13T00:32:46;11.00;99.90
7842;DHT22;3966;51.052;13.820;2023-05-13T00:35:11;10.90;99.90
7842;DHT22;3966;51.052;13.820;2023-05-13T00:37:37;10.80;99.90
7842;DHT22;3966;51.052;13.820;2023-05-13T00:40:03;10.80;99.90
7842;DHT22;3966;51.052;13.820;2023-05-13T00:42:29;10.90;99.90
7842;DHT22;3966;51.052;13.820;2023-05-13T00:44:54;10.90;99.90
7842;DHT22;3966;51.052;13.820;2023-05-13T00:47:21;10.80;99.90
7842;DHT22;3966;51.052;13.820;2023-05-13T00:49:46;10.80;99.90
7842;DHT22;3966;51.052;13.820;2023-05-13T00:52:12;10.70;99.90
7842;DHT22;3966;51.052;13.820;2023-05-13T00:54:38;10.70;99.90
7842;DHT22;3966;51.052;13.820;2023-05-13T00:57:04;10.70;99.90
7842;DHT22;3966;51.052;13.820;2023-05-13T00:59:30;10.60;99.90
7842;DHT22;3966;51.052;13.820;2023-05-13T01:07:13;10.60;99.90
7842;DHT22;3966;51.052;13.820;2023-05-13T01:09:57;10.60;99.90
7842;DHT22;3966;51.052;13.820;2023-05-13T01:12:34;10.60;99.90
7842;DHT22;3966;51.052;13.820;2023-05-13T01:15:24;10.50;99.90
7842;DHT22;3966;51.052;13.820;2023-05-13T01:20:30;10.50;99.90
7842;DHT22;3966;51.052;13.820;2023-05-13T01:22:56;10.50;99.90
7842;DHT22;3966;51.052;13.820;2023-05-13T01:25:22;10.40;99.90
7842;DHT22;3966;51.052;13.820;2023-05-13T01:27:49;10.40;99.90
7842;DHT22;3966;51.052;13.820;2023-05-13T01:30:15;10.50;99.90
7842;DHT22;3966;51.052;13.820;2023-05-13T01:32:40;10.50;99.90
7842;DHT22;3966;51.052;13.820;2023-05-13T01:35:07;10.40;99.90
7842;DHT22;3966;51.052;13.820;2023-05-13T01:37:33;10.40;99.90
7842;DHT22;3966;51.052;13.820;2023-05-13T01:40:00;10.20;99.90
7842;DHT22;3966;51.052;13.820;2023-05-13T01:42:28;10.20;99.90
7842;DHT22;3966;51.052;13.820;2023-05-13T01:44:54;10.10;99.90
7842;DHT22;3966;51.052;13.820;2023-05-13T01:47:19;10.10;99.90
7842;DHT22;3966;51.052;13.820;2023-05-13T01:49:45;10.10;99.90
7842;DHT22;3966;51.052;13.820;2023-05-13T01:52:11;10.10;99.90
7842;DHT22;3966;51.052;13.820;2023-05-13T01:54:36;10.10;99.90
7842;DHT22;3966;51.052;13.820;2023-05-13T01:57:02;10.20;99.90
7842;DHT22;3966;51.052;13.820;2023-05-13T01:59:28;10.10;99.90
7842;DHT22;3966;51.052;13.820;2023-05-13T02:01:54;10.10;99.90
7842;DHT22;3966;51.052;13.820;2023-05-13T02:04:20;10.10;99.90
7842;DHT22;3966;51.052;13.820;2023-05-13T02:06:45;10.10;99.90
7842;DHT22;3966;51.052;13.820;2023-05-13T02:09:12;10.10;99.90
7842;DHT22;3966;51.052;13.820;2023-05-13T02:11:38;10.10;99.90
7842;DHT22;3966;51.052;13.820;2023-05-13T02:14:03;10.00;99.90
7842;DHT22;3966;51.052;13.820;2023-05-13T02:16:30;10.00;99.90
7842;DHT22;3966;51.052;13.820;2023-05-13T02:18:56;10.00;99.90
7842;DHT22;3966;51.052;13.820;2023-05-13T02:21:22;10.00;99.90
7842;DHT22;3966;51.052;13.820;2023-05-13T02:23:47;10.00;99.90
7842;DHT22;3966;51.052;13.820;2023-05-13T02:26:13;10.00;99.90
7842;DHT22;3966;51.052;13.820;2023-05-13T02:28:39;10.10;99.90
7842;DHT22;3966;51.052;13.820;2023-05-13T02:31:04;10.00;99.90
7842;DHT22;3966;51.052;13.820;2023-05-13T02:33:31;10.00;99.90
7842;DHT22;3966;51.052;13.820;2023-05-13T02:35:56;10.00;99.90
7842;DHT22;3966;51.052;13.820;2023-05-13T02:38:22;10.00;99.90
7842;DHT22;3966;51.052;13.820;2023-05-13T02:40:47;9.90;99.90
7842;DHT22;3966;51.052;13.820;2023-05-13T02:43:13;9.90;99.90
7842;DHT22;3966;51.052;13.820;2023-05-13T02:45:39;9.80;99.90
7842;DHT22;3966;51.052;13.820;2023-05-13T02:48:05;9.80;99.90
7842;DHT22;3966;51.052;13.820;2023-05-13T02:50:30;9.70;99.90
7842;DHT22;3966;51.052;13.820;2023-05-13T02:52:56;9.70;99.90
7842;DHT22;3966;51.052;13.820;2023-05-13T02:55:22;9.80;99.90
7842;DHT22;3966;51.052;13.820;2023-05-13T02:57:48;9.70;99.90
7842;DHT22;3966;51.052;13.820;2023-05-13T03:00:14;9.80;99.90
7842;DHT22;3966;51.052;13.820;2023-05-13T03:02:39;9.70;99.90
7842;DHT22;3966;51.052;13.820;2023-05-13T03:05:05;9.70;99.90
7842;DHT22;3966;51.052;13.820;2023-05-13T03:07:31;9.60;99.90
7842;DHT22;3966;51.052;13.820;2023-05-13T03:09:57;9.70;99.90
7842;DHT22;3966;51.052;13.820;2023-05-13T03:12:22;9.70;99.90
7842;DHT22;3966;51.052;13.820;2023-05-13T03:14:48;9.70;99.90
7842;DHT22;3966;51.052;13.820;2023-05-13T03:19:41;9.70;99.90
7842;DHT22;3966;51.052;13.820;2023-05-13T03:22:07;9.70;99.90
7842;DHT22;3966;51.052;13.820;2023-05-13T03:24:33;9.70;99.90
7842;DHT22;3966;51.052;13.820;2023-05-13T03:26:59;9.70;99.90
7842;DHT22;3966;51.052;13.820;2023-05-13T03:29:25;9.70;99.90
7842;DHT22;3966;51.052;13.820;2023-05-13T03:31:52;9.70;99.90
7842;DHT22;3966;51.052;13.820;2023-05-13T03:34:18;9.70;99.90
7842;DHT22;3966;51.052;13.820;2023-05-13T03:36:43;9.70;99.90
7842;DHT22;3966;51.052;13.820;2023-05-13T03:39:09;9.70;99.90
7842;DHT22;3966;51.052;13.820;2023-05-13T03:41:35;9.70;99.90
7842;DHT22;3966;51.052;13.820;2023-05-13T03:44:01;9.60;99.90
7842;DHT22;3966;51.052;13.820;2023-05-13T03:46:27;9.60;99.90
7842;DHT22;3966;51.052;13.820;2023-05-13T03:48:53;9.50;99.90
7842;DHT22;3966;51.052;13.820;2023-05-13T03:51:21;9.60;99.90
7842;DHT22;3966;51.052;13.820;2023-05-13T03:53:47;9.60;99.90
7842;DHT22;3966;51.052;13.820;2023-05-13T03:56:13;9.60;99.90
7842;DHT22;3966;51.052;13.820;2023-05-13T03:58:39;9.50;99.90
7842;DHT22;3966;51.052;13.820;2023-05-13T04:01:06;9.60;99.90
7842;DHT22;3966;51.052;13.820;2023-05-13T04:03:31;9.60;99.90
7842;DHT22;3966;51.052;13.820;2023-05-13T04:05:59;9.60;99.90
7842;DHT22;3966;51.052;13.820;2023-05-13T04:08:26;9.60;99.90
7842;DHT22;3966;51.052;13.820;2023-05-13T04:10:52;9.60;99.90
7842;DHT22;3966;51.052;13.820;2023-05-13T04:13:18;9.60;99.90
7842;DHT22;3966;51.052;13.820;2023-05-13T04:15:43;9.60;99.90
7842;DHT22;3966;51.052;13.820;2023-05-13T04:18:09;9.60;99.90
7842;DHT22;3966;51.052;13.820;2023-05-13T04:20:38;9.60;99.90
7842;DHT22;3966;51.052;13.820;2023-05-13T04:23:04;9.60;99.90
7842;DHT22;3966;51.052;13.820;2023-05-13T04:25:30;9.60;99.90
7842;DHT22;3966;51.052;13.820;2023-05-13T04:27:56;9.60;99.90
7842;DHT22;3966;51.052;13.820;2023-05-13T04:30:21;9.60;99.90
7842;DHT22;3966;51.052;13.820;2023-05-13T04:32:47;9.50;99.90
7842;DHT22;3966;51.052;13.820;2023-05-13T04:35:13;9.50;99.90
7842;DHT22;3966;51.052;13.820;2023-05-13T04:37:38;9.60;99.90
7842;DHT22;3966;51.052;13.820;2023-05-13T04:40:04;9.60;99.90
7842;DHT22;3966;51.052;13.820;2023-05-13T04:42:31;9.60;99.90
7842;DHT22;3966;51.052;13.820;2023-05-13T04:44:56;9.60;99.90
7842;DHT22;3966;51.052;13.820;2023-05-13T04:47:22;9.60;99.90
7842;DHT22;3966;51.052;13.820;2023-05-13T04:49:48;9.60;99.90
7842;DHT22;3966;51.052;13.820;2023-05-13T04:52:13;9.60;99.90
7842;DHT22;3966;51.052;13.820;2023-05-13T04:54:39;9.60;99.90
7842;DHT22;3966;51.052;13.820;2023-05-13T04:57:05;9.60;99.90
7842;DHT22;3966;51.052;13.820;2023-05-13T04:59:31;9.60;99.90
7842;DHT22;3966;51.052;13.820;2023-05-13T05:01:57;9.60;99.90
7842;DHT22;3966;51.052;13.820;2023-05-13T05:04:24;9.80;99.90
7842;DHT22;3966;51.052;13.820;2023-05-13T05:06:49;9.80;99.90
7842;DHT22;3966;51.052;13.820;2023-05-13T05:09:15;9.80;99.90
7842;DHT22;3966;51.052;13.820;2023-05-13T05:11:42;9.80;99.90
7842;DHT22;3966;51.052;13.820;2023-05-13T05:14:08;9.90;99.90
7842;DHT22;3966;51.052;13.820;2023-05-13T05:16:34;9.90;99.90
7842;DHT22;3966;51.052;13.820;2023-05-13T05:19:00;9.80;99.90
7842;DHT22;3966;51.052;13.820;2023-05-13T05:21:25;9.90;99.90
7842;DHT22;3966;51.052;13.820;2023-05-13T05:23:51;9.90;99.90
7842;DHT22;3966;51.052;13.820;2023-05-13T05:26:16;9.80;99.90
7842;DHT22;3966;51.052;13.820;2023-05-13T05:28:43;9.90;99.90
7842;DHT22;3966;51.052;13.820;2023-05-13T05:31:09;9.90;99.90
7842;DHT22;3966;51.052;13.820;2023-05-13T05:33:35;10.00;99.90
7842;DHT22;3966;51.052;13.820;2023-05-13T05:36:01;10.10;99.90
7842;DHT22;3966;51.052;13.820;2023-05-13T05:38:27;10.20;99.90
7842;DHT22;3966;51.052;13.820;2023-05-13T05:40:53;10.20;99.90
7842;DHT22;3966;51.052;13.820;2023-05-13T05:43:19;10.30;99.90
7842;DHT22;3966;51.052;13.820;2023-05-13T05:45:45;10.40;99.90
7842;DHT22;3966;51.052;13.820;2023-05-13T05:48:11;10.40;99.90
7842;DHT22;3966;51.052;13.820;2023-05-13T05:50:36;10.50;99.90
7842;DHT22;3966;51.052;13.820;2023-05-13T05:53:02;10.60;99.90
7842;DHT22;3966;51.052;13.820;2023-05-13T05:55:28;10.60;99.90
7842;DHT22;3966;51.052;13.820;2023-05-13T05:57:56;10.70;99.90
7842;DHT22;3966;51.052;13.820;2023-05-13T06:00:23;10.80;99.90
7842;DHT22;3966;51.052;13.820;2023-05-13T06:02:49;10.90;99.90
7842;DHT22;3966;51.052;13.820;2023-05-13T06:05:15;11.00;99.90
7842;DHT22;3966;51.052;13.820;2023-05-13T06:07:41;11.10;99.90
7842;DHT22;3966;51.052;13.820;2023-05-13T06:10:06;11.20;99.90
7842;DHT22;3966;51.052;13.820;2023-05-13T06:12:33;11.30;99.90
7842;DHT22;3966;51.052;13.820;2023-05-13T06:14:59;11.40;99.90
7842;DHT22;3966;51.052;13.820;2023-05-13T06:17:25;11.50;99.90
7842;DHT22;3966;51.052;13.820;2023-05-13T06:19:50;11.60;99.90
7842;DHT22;3966;51.052;13.820;2023-05-13T06:22:16;11.70;99.90
7842;DHT22;3966;51.052;13.820;2023-05-13T06:24:42;11.80;99.90
7842;DHT22;3966;51.052;13.820;2023-05-13T06:27:12;11.90;99.90
7842;DHT22;3966;51.052;13.820;2023-05-13T06:29:38;12.00;99.90
7842;DHT22;3966;51.052;13.820;2023-05-13T06:32:04;12.20;99.90
7842;DHT22;3966;51.052;13.820;2023-05-13T06:34:30;12.40;99.90
7842;DHT22;3966;51.052;13.820;2023-05-13T06:36:55;12.50;99.90
7842;DHT22;3966;51.052;13.820;2023-05-13T06:39:21;12.60;99.90
7842;DHT22;3966;51.052;13.820;2023-05-13T06:41:47;12.70;99.90
7842;DHT22;3966;51.052;13.820;2023-05-13T06:44:12;12.70;99.90
7842;DHT22;3966;51.052;13.820;2023-05-13T06:46:38;12.90;99.90
7842;DHT22;3966;51.052;13.820;2023-05-13T06:49:03;13.00;99.90
7842;DHT22;3966;51.052;13.820;2023-05-13T06:51:29;13.10;99.90
7842;DHT22;3966;51.052;13.820;2023-05-13T06:53:57;13.10;99.90
7842;DHT22;3966;51.052;13.820;2023-05-13T06:56:22;13.20;99.90
7842;DHT22;3966;51.052;13.820;2023-05-13T06:58:49;13.30;99.90
7842;DHT22;3966;51.052;13.820;2023-05-13T07:01:15;13.30;99.90
7842;DHT22;3966;51.052;13.820;2023-05-13T07:03:42;13.40;99.90
7842;DHT22;3966;51.052;13.820;2023-05-13T07:06:07;13.50;99.90
7842;DHT22;3966;51.052;13.820;2023-05-13T07:08:33;13.60;99.90
7842;DHT22;3966;51.052;13.820;2023-05-13T07:10:59;13.70;99.90
7842;DHT22;3966;51.052;13.820;2023-05-13T07:13:25;13.90;99.90
7842;DHT22;3966;51.052;13.820;2023-05-13T07:15:51;14.00;99.90
7842;DHT22;3966;51.052;13.820;2023-05-13T07:18:16;14.20;99.90
7842;DHT22;3966;51.052;13.820;2023-05-13T07:20:42;14.40;99.90
7842;DHT22;3966;51.052;13.820;2023-05-13T07:23:08;14.50;99.90
7842;DHT22;3966;51.052;13.820;2023-05-13T07:25:33;14.60;99.90
7842;DHT22;3966;51.052;13.820;2023-05-13T07:27:59;14.70;99.90
7842;DHT22;3966;51.052;13.820;2023-05-13T07:30:25;14.80;99.90
7842;DHT22;3966;51.052;13.820;2023-05-13T07:32:50;14.90;99.90
7842;DHT22;3966;51.052;13.820;2023-05-13T07:35:16;15.00;99.90
7842;DHT22;3966;51.052;13.820;2023-05-13T07:37:43;15.10;99.90
7842;DHT22;3966;51.052;13.820;2023-05-13T07:40:09;15.20;99.90
7842;DHT22;3966;51.052;13.820;2023-05-13T07:42:36;15.30;99.90
7842;DHT22;3966;51.052;13.820;2023-05-13T07:45:02;15.40;99.90
7842;DHT22;3966;51.052;13.820;2023-05-13T07:47:28;15.50;99.90
7842;DHT22;3966;51.052;13.820;2023-05-13T07:49:56;15.60;99.90
7842;DHT22;3966;51.052;13.820;2023-05-13T07:52:22;15.70;99.90
7842;DHT22;3966;51.052;13.820;2023-05-13T07:54:48;15.70;99.90
7842;DHT22;3966;51.052;13.820;2023-05-13T07:57:14;15.80;99.90
7842;DHT22;3966;51.052;13.820;2023-05-13T07:59:39;15.90;99.90
7842;DHT22;3966;51.052;13.820;2023-05-13T08:02:06;15.90;99.90
7842;DHT22;3966;51.052;13.820;2023-05-13T08:04:32;16.00;99.90
7842;DHT22;3966;51.052;13.820;2023-05-13T08:07:00;16.20;99.90
7842;DHT22;3966;51.052;13.820;2023-05-13T08:09:26;16.20;99.90
7842;DHT22;3966;51.052;13.820;2023-05-13T08:11:52;16.20;99.90
7842;DHT22;3966;51.052;13.820;2023-05-13T08:14:18;16.30;99.90
7842;DHT22;3966;51.052;13.820;2023-05-13T08:16:44;16.40;99.90
7842;DHT22;3966;51.052;13.820;2023-05-13T08:19:10;16.40;99.90
7842;DHT22;3966;51.052;13.820;2023-05-13T08:21:36;16.60;99.90
7842;DHT22;3966;51.052;13.820;2023-05-13T08:24:01;16.80;99.90
7842;DHT22;3966;51.052;13.820;2023-05-13T08:26:27;16.90;99.90
7842;DHT22;3966;51.052;13.820;2023-05-13T08:28:53;16.90;99.90
7842;DHT22;3966;51.052;13.820;2023-05-13T08:31:18;17.00;99.90
7842;DHT22;3966;51.052;13.820;2023-05-13T08:33:44;17.00;99.90
7842;DHT22;3966;51.052;13.820;2023-05-13T08:36:12;17.00;99.90
7842;DHT22;3966;51.052;13.820;2023-05-13T08:38:37;17.00;99.90
7842;DHT22;3966;51.052;13.820;2023-05-13T08:41:03;17.00;99.90
7842;DHT22;3966;51.052;13.820;2023-05-13T08:43:32;17.10;99.90
7842;DHT22;3966;51.052;13.820;2023-05-13T08:46:02;17.30;99.90
7842;DHT22;3966;51.052;13.820;2023-05-13T08:48:31;17.40;99.90
7842;DHT22;3966;51.052;13.820;2023-05-13T08:50:58;17.60;99.90
7842;DHT22;3966;51.052;13.820;2023-05-13T08:53:26;17.60;99.90
7842;DHT22;3966;51.052;13.820;2023-05-13T08:55:52;17.60;99.90
7842;DHT22;3966;51.052;13.820;2023-05-13T08:58:18;17.60;99.90
7842;DHT22;3966;51.052;13.820;2023-05-13T09:00:44;17.60;99.90
7842;DHT22;3966;51.052;13.820;2023-05-13T09:03:11;17.50;99.90
7842;DHT22;3966;51.052;13.820;2023-05-13T09:05:37;17.40;99.90
7842;DHT22;3966;51.052;13.820;2023-05-13T09:08:06;17.60;99.90
7842;DHT22;3966;51.052;13.820;2023-05-13T09:10:33;17.70;99.90
7842;DHT22;3966;51.052;13.820;2023-05-13T09:12:59;17.80;99.90
7842;DHT22;3966;51.052;13.820;2023-05-13T09:15:27;17.90;99.90
7842;DHT22;3966;51.052;13.820;2023-05-13T09:17:54;18.00;99.90
7842;DHT22;3966;51.052;13.820;2023-05-13T09:20:21;18.10;99.90
7842;DHT22;3966;51.052;13.820;2023-05-13T09:23:05;18.10;99.90
7842;DHT22;3966;51.052;13.820;2023-05-13T09:25:31;18.30;99.90
7842;DHT22;3966;51.052;13.820;2023-05-13T09:28:02;18.50;99.90
7842;DHT22;3966;51.052;13.820;2023-05-13T09:30:31;18.60;99.90
7842;DHT22;3966;51.052;13.820;2023-05-13T09:33:16;18.80;99.90
7842;DHT22;3966;51.052;13.820;2023-05-13T09:35:53;18.60;99.90
7842;DHT22;3966;51.052;13.820;2023-05-13T09:38:26;18.50;99.90
7842;DHT22;3966;51.052;13.820;2023-05-13T09:40:54;18.50;99.90
7842;DHT22;3966;51.052;13.820;2023-05-13T09:43:22;18.60;99.90
7842;DHT22;3966;51.052;13.820;2023-05-13T09:45:56;18.60;99.90
7842;DHT22;3966;51.052;13.820;2023-05-13T09:48:27;18.60;99.90
7842;DHT22;3966;51.052;13.820;2023-05-13T09:50:53;18.50;99.90
7842;DHT22;3966;51.052;13.820;2023-05-13T09:53:20;18.60;99.90
7842;DHT22;3966;51.052;13.820;2023-05-13T09:55:47;18.50;99.90
7842;DHT22;3966;51.052;13.820;2023-05-13T09:58:14;18.60;99.90
7842;DHT22;3966;51.052;13.820;2023-05-13T10:00:41;18.60;99.90
7842;DHT22;3966;51.052;13.820;2023-05-13T10:03:07;18.70;99.90
7842;DHT22;3966;51.052;13.820;2023-05-13T10:05:34;18.80;99.90
7842;DHT22;3966;51.052;13.820;2023-05-13T10:08:00;18.80;99.90
7842;DHT22;3966;51.052;13.820;2023-05-13T10:10:30;19.10;99.90
7842;DHT22;3966;51.052;13.820;2023-05-13T10:13:02;19.30;99.90
7842;DHT22;3966;51.052;13.820;2023-05-13T10:15:29;19.30;99.90
7842;DHT22;3966;51.052;13.820;2023-05-13T10:17:56;19.40;99.90
7842;DHT22;3966;51.052;13.820;2023-05-13T10:20:23;19.50;99.90
7842;DHT22;3966;51.052;13.820;2023-05-13T10:22:51;19.60;99.90
7842;DHT22;3966;51.052;13.820;2023-05-13T10:25:17;19.70;99.90
7842;DHT22;3966;51.052;13.820;2023-05-13T10:27:43;19.90;99.90
7842;DHT22;3966;51.052;13.820;2023-05-13T10:30:09;19.80;99.90
7842;DHT22;3966;51.052;13.820;2023-05-13T10:32:37;19.70;99.90
7842;DHT22;3966;51.052;13.820;2023-05-13T10:35:14;19.70;99.90
7842;DHT22;3966;51.052;13.820;2023-05-13T10:37:59;19.90;99.90
7842;DHT22;3966;51.052;13.820;2023-05-13T10:45:48;19.90;99.90
7842;DHT22;3966;51.052;13.820;2023-05-13T10:48:15;19.90;99.90
7842;DHT22;3966;51.052;13.820;2023-05-13T10:50:55;19.70;99.90
7842;DHT22;3966;51.052;13.820;2023-05-13T10:53:28;19.60;99.90
7842;DHT22;3966;51.052;13.820;2023-05-13T10:55:56;19.60;99.90
7842;DHT22;3966;51.052;13.820;2023-05-13T10:58:29;19.30;99.90
7842;DHT22;3966;51.052;13.820;2023-05-13T11:01:12;19.30;99.90
7842;DHT22;3966;51.052;13.820;2023-05-13T11:03:39;19.20;99.90
7842;DHT22;3966;51.052;13.820;2023-05-13T11:06:18;19.10;99.90
7842;DHT22;3966;51.052;13.820;2023-05-13T11:08:49;19.00;99.90
7842;DHT22;3966;51.052;13.820;2023-05-13T11:13:52;18.80;99.90
7842;DHT22;3966;51.052;13.820;2023-05-13T11:16:21;18.80;99.90
7842;DHT22;3966;51.052;13.820;2023-05-13T11:18:47;18.70;99.90
7842;DHT22;3966;51.052;13.820;2023-05-13T11:21:13;18.60;99.90
7842;DHT22;3966;51.052;13.820;2023-05-13T11:23:58;18.60;99.90
7842;DHT22;3966;51.052;13.820;2023-05-13T11:26:25;18.60;99.90
7842;DHT22;3966;51.052;13.820;2023-05-13T11:29:04;18.60;99.90
7842;DHT22;3966;51.052;13.820;2023-05-13T11:31:44;18.90;99.90
7842;DHT22;3966;51.052;13.820;2023-05-13T11:34:12;19.10;99.90
7842;DHT22;3966;51.052;13.820;2023-05-13T11:36:43;19.40;99.90
7842;DHT22;3966;51.052;13.820;2023-05-13T11:41:45;19.70;99.90
7842;DHT22;3966;51.052;13.820;2023-05-13T11:44:13;19.70;99.90
7842;DHT22;3966;51.052;13.820;2023-05-13T11:46:48;20.00;99.90
7842;DHT22;3966;51.052;13.820;2023-05-13T11:52:00;20.40;99.90
7842;DHT22;3966;51.052;13.820;2023-05-13T11:54:26;20.40;99.10
7842;DHT22;3966;51.052;13.820;2023-05-13T11:56:52;20.30;98.00
7842;DHT22;3966;51.052;13.820;2023-05-13T11:59:18;20.30;97.60
7842;DHT22;3966;51.052;13.820;2023-05-13T12:01:44;20.30;96.40
7842;DHT22;3966;51.052;13.820;2023-05-13T12:04:10;20.20;95.20
7842;DHT22;3966;51.052;13.820;2023-05-13T12:06:43;20.00;94.50
7842;DHT22;3966;51.052;13.820;2023-05-13T12:09:11;20.00;95.40
7842;DHT22;3966;51.052;13.820;2023-05-13T12:11:38;19.80;95.90
7842;DHT22;3966;51.052;13.820;2023-05-13T12:14:04;20.00;95.20
7842;DHT22;3966;51.052;13.820;2023-05-13T12:16:30;20.00;95.30
7842;DHT22;3966;51.052;13.820;2023-05-13T12:18:59;19.90;94.70
7842;DHT22;3966;51.052;13.820;2023-05-13T12:21:30;19.60;95.50
7842;DHT22;3966;51.052;13.820;2023-05-13T12:23:56;19.50;97.80
7842;DHT22;3966;51.052;13.820;2023-05-13T12:26:23;19.60;95.60
7842;DHT22;3966;51.052;13.820;2023-05-13T12:28:56;19.80;96.20
7842;DHT22;3966;51.052;13.820;2023-05-13T12:31:21;19.60;95.50
7842;DHT22;3966;51.052;13.820;2023-05-13T12:33:48;19.60;97.80
7842;DHT22;3966;51.052;13.820;2023-05-13T12:36:25;19.70;96.40
7842;DHT22;3966;51.052;13.820;2023-05-13T12:39:03;19.60;98.70
7842;DHT22;3966;51.052;13.820;2023-05-13T12:41:31;19.50;99.90
7842;DHT22;3966;51.052;13.820;2023-05-13T12:43:59;19.40;99.90
7842;DHT22;3966;51.052;13.820;2023-05-13T12:46:25;19.30;99.90
7842;DHT22;3966;51.052;13.820;2023-05-13T12:48:55;19.30;99.90
7842;DHT22;3966;51.052;13.820;2023-05-13T12:51:21;19.40;99.90
7842;DHT22;3966;51.052;13.820;2023-05-13T12:53:47;19.30;99.90
7842;DHT22;3966;51.052;13.820;2023-05-13T12:56:13;19.40;99.90
7842;DHT22;3966;51.052;13.820;2023-05-13T12:58:39;19.60;99.90
7842;DHT22;3966;51.052;13.820;2023-05-13T13:01:05;19.60;99.90
7842;DHT22;3966;51.052;13.820;2023-05-13T13:03:30;19.60;99.90
7842;DHT22;3966;51.052;13.820;2023-05-13T13:05:56;19.50;99.90
7842;DHT22;3966;51.052;13.820;2023-05-13T13:08:22;19.60;99.90
7842;DHT22;3966;51.052;13.820;2023-05-13T13:10:48;19.60;99.90
7842;DHT22;3966;51.052;13.820;2023-05-13T13:13:14;19.60;99.90
7842;DHT22;3966;51.052;13.820;2023-05-13T13:15:40;19.70;99.90
7842;DHT22;3966;51.052;13.820;2023-05-13T13:18:05;19.70;99.90
7842;DHT22;3966;51.052;13.820;2023-05-13T13:20:31;19.60;99.90
7842;DHT22;3966;51.052;13.820;2023-05-13T13:22:57;19.70;99.90
7842;DHT22;3966;51.052;13.820;2023-05-13T13:25:25;19.70;99.90
7842;DHT22;3966;51.052;13.820;2023-05-13T13:27:51;19.90;99.90
7842;DHT22;3966;51.052;13.820;2023-05-13T13:30:17;19.90;99.90
7842;DHT22;3966;51.052;13.820;2023-05-13T13:32:42;19.90;99.90
7842;DHT22;3966;51.052;13.820;2023-05-13T13:35:08;19.80;99.90
7842;DHT22;3966;51.052;13.820;2023-05-13T13:37:34;19.60;99.90
7842;DHT22;3966;51.052;13.820;2023-05-13T13:40:00;19.70;99.90
7842;DHT22;3966;51.052;13.820;2023-05-13T13:42:26;19.80;99.90
7842;DHT22;3966;51.052;13.820;2023-05-13T13:44:51;19.80;99.90
7842;DHT22;3966;51.052;13.820;2023-05-13T13:47:17;19.70;99.90
7842;DHT22;3966;51.052;13.820;2023-05-13T13:49:42;19.40;99.90
7842;DHT22;3966;51.052;13.820;2023-05-13T13:52:08;19.60;99.90
7842;DHT22;3966;51.052;13.820;2023-05-13T13:54:34;19.50;99.90
7842;DHT22;3966;51.052;13.820;2023-05-13T13:57:00;19.50;99.90
7842;DHT22;3966;51.052;13.820;2023-05-13T13:59:26;19.50;99.90
7842;DHT22;3966;51.052;13.820;2023-05-13T14:01:52;19.40;99.90
7842;DHT22;3966;51.052;13.820;2023-05-13T14:04:19;19.30;99.90
7842;DHT22;3966;51.052;13.820;2023-05-13T14:06:47;19.00;99.90
7842;DHT22;3966;51.052;13.820;2023-05-13T14:09:14;19.00;99.90
7842;DHT22;3966;51.052;13.820;2023-05-13T14:11:40;18.80;99.90
7842;DHT22;3966;51.052;13.820;2023-05-13T14:14:05;18.70;99.90
7842;DHT22;3966;51.052;13.820;2023-05-13T14:16:31;18.50;99.90
7842;DHT22;3966;51.052;13.820;2023-05-13T14:18:57;18.50;99.90
7842;DHT22;3966;51.052;13.820;2023-05-13T14:21:23;18.50;99.90
7842;DHT22;3966;51.052;13.820;2023-05-13T14:23:48;18.50;99.90
7842;DHT22;3966;51.052;13.820;2023-05-13T14:26:14;18.60;99.90
7842;DHT22;3966;51.052;13.820;2023-05-13T14:28:41;18.50;99.90
7842;DHT22;3966;51.052;13.820;2023-05-13T14:31:06;18.30;99.90
7842;DHT22;3966;51.052;13.820;2023-05-13T14:33:32;18.20;99.90
7842;DHT22;3966;51.052;13.820;2023-05-13T14:35:58;18.30;99.90
7842;DHT22;3966;51.052;13.820;2023-05-13T14:38:23;18.40;99.90
7842;DHT22;3966;51.052;13.820;2023-05-13T14:40:49;18.20;99.90
7842;DHT22;3966;51.052;13.820;2023-05-13T14:43:15;18.20;99.90
7842;DHT22;3966;51.052;13.820;2023-05-13T14:45:40;18.00;99.90
7842;DHT22;3966;51.052;13.820;2023-05-13T14:48:06;17.90;99.90
7842;DHT22;3966;51.052;13.820;2023-05-13T14:50:31;17.90;99.90
7842;DHT22;3966;51.052;13.820;2023-05-13T14:52:57;17.80;99.90
7842;DHT22;3966;51.052;13.820;2023-05-13T14:55:23;17.90;99.90
7842;DHT22;3966;51.052;13.820;2023-05-13T14:57:49;17.90;99.90
7842;DHT22;3966;51.052;13.820;2023-05-13T15:00:15;17.90;99.90
7842;DHT22;3966;51.052;13.820;2023-05-13T15:02:41;17.90;99.90
7842;DHT22;3966;51.052;13.820;2023-05-13T15:05:07;18.20;99.90
7842;DHT22;3966;51.052;13.820;2023-05-13T15:07:32;18.20;99.90
7842;DHT22;3966;51.052;13.820;2023-05-13T15:09:58;18.30;99.90
7842;DHT22;3966;51.052;13.820;2023-05-13T15:12:24;18.30;99.90
7842;DHT22;3966;51.052;13.820;2023-05-13T15:14:54;18.50;99.90
7842;DHT22;3966;51.052;13.820;2023-05-13T15:17:20;18.50;99.90
7842;DHT22;3966;51.052;13.820;2023-05-13T15:19:46;18.30;99.90
7842;DHT22;3966;51.052;13.820;2023-05-13T15:22:12;18.20;99.90
7842;DHT22;3966;51.052;13.820;2023-05-13T15:24:37;18.10;99.90
7842;DHT22;3966;51.052;13.820;2023-05-13T15:27:04;17.90;99.90
7842;DHT22;3966;51.052;13.820;2023-05-13T15:29:30;17.80;99.90
7842;DHT22;3966;51.052;13.820;2023-05-13T15:31:56;17.60;99.90
7842;DHT22;3966;51.052;13.820;2023-05-13T15:34:22;17.40;99.90
7842;DHT22;3966;51.052;13.820;2023-05-13T15:36:48;17.40;99.90
7842;DHT22;3966;51.052;13.820;2023-05-13T15:39:14;17.30;99.90
7842;DHT22;3966;51.052;13.820;2023-05-13T15:41:43;17.20;99.90
7842;DHT22;3966;51.052;13.820;2023-05-13T15:44:09;17.30;99.90
7842;DHT22;3966;51.052;13.820;2023-05-13T15:46:34;17.20;99.90
7842;DHT22;3966;51.052;13.820;2023-05-13T15:49:00;17.20;99.90
7842;DHT22;3966;51.052;13.820;2023-05-13T15:51:26;17.10;99.90
7842;DHT22;3966;51.052;13.820;2023-05-13T15:53:52;17.10;99.90
7842;DHT22;3966;51.052;13.820;2023-05-13T15:56:19;17.00;99.90
7842;DHT22;3966;51.052;13.820;2023-05-13T15:58:46;16.90;99.90
7842;DHT22;3966;51.052;13.820;2023-05-13T16:01:12;16.90;99.90
7842;DHT22;3966;51.052;13.820;2023-05-13T16:03:37;16.70;99.90
7842;DHT22;3966;51.052;13.820;2023-05-13T16:06:03;16.70;99.90
7842;DHT22;3966;51.052;13.820;2023-05-13T16:08:29;16.70;99.90
7842;DHT22;3966;51.052;13.820;2023-05-13T16:10:55;16.70;99.90